sensor_id;sensor_type;location;lat;lon;timestamp;temperature;humidity
23495;DHT22;26107;50.832;2.950;2022-08-06T00:10:21;17.70;91.20
23495;DHT22;26107;50.832;2.950;2022-08-06T00:25:22;17.60;91.50
23495;DHT22;26107;50.832;2.950;2022-08-06T00:40:23;17.40;92.10
23495;DHT22;26107;50.832;2.950;2022-08-06T00:55:23;17.20;92.40
23495;DHT22;26107;50.832;2.950;2022-08-06T01:10:24;17.10;93.80
23495;DHT22;26107;50.832;2.950;2022-08-06T01:40:31;17.00;94.80
23495;DHT22;26107;50.832;2.950;2022-08-06T01:55:33;16.70;95.60
23495;DHT22;26107;50.832;2.950;2022-08-06T02:10:35;16.90;95.90
23495;DHT22;26107;50.832;2.950;2022-08-06T02:25:37;16.60;96.60
23495;DHT22;26107;50.832;2.950;2022-08-06T02:40:44;16.60;97.10
23495;DHT22;26107;50.832;2.950;2022-08-06T02:55:47;16.40;98.00
23495;DHT22;26107;50.832;2.950;2022-08-06T03:10:48;16.20;98.00
23495;DHT22;26107;50.832;2.950;2022-08-06T03:25:49;16.20;99.40
23495;DHT22;26107;50.832;2.950;2022-08-06T03:40:50;15.60;99.90
23495;DHT22;26107;50.832;2.950;2022-08-06T03:55:52;15.70;99.90
23495;DHT22;26107;50.832;2.950;2022-08-06T04:10:55;15.70;99.90
23495;DHT22;26107;50.832;2.950;2022-08-06T04:25:56;15.40;99.90
23495;DHT22;26107;50.832;2.950;2022-08-06T04:40:57;15.70;99.90
23495;DHT22;26107;50.832;2.950;2022-08-06T04:55:58;15.40;99.90
23495;DHT22;26107;50.832;2.950;2022-08-06T05:11:06;15.40;99.90
23495;DHT22;26107;50.832;2.950;2022-08-06T05:26:09;15.60;99.90
23495;DHT22;26107;50.832;2.950;2022-08-06T05:41:10;15.40;99.90
23495;DHT22;26107;50.832;2.950;2022-08-06T05:56:12;16.00;99.90
23495;DHT22;26107;50.832;2.950;2022-08-06T06:11:14;16.60;99.90
23495;DHT22;26107;50.832;2.950;2022-08-06T06:26:21;15.50;99.90
23495;DHT22;26107;50.832;2.950;2022-08-06T06:41:26;17.00;99.90
23495;DHT22;26107;50.832;2.950;2022-08-06T06:56:29;17.80;99.90
23495;DHT22;26107;50.832;2.950;2022-08-06T07:11:31;18.10;99.90
23495;DHT22;26107;50.832;2.950;2022-08-06T07:26:32;18.40;99.90
23495;DHT22;26107;50.832;2.950;2022-08-06T07:41:33;18.70;99.60
23495;DHT22;26107;50.832;2.950;2022-08-06T07:56:34;18.60;99.00
23495;DHT22;26107;50.832;2.950;2022-08-06T08:11:35;19.00;98.80
23495;DHT22;26107;50.832;2.950;2022-08-06T08:26:40;19.30;98.30
23495;DHT22;26107;50.832;2.950;2022-08-06T08:41:51;19.00;98.50
23495;DHT22;26107;50.832;2.950;2022-08-06T08:56:52;19.50;98.20
23495;DHT22;26107;50.832;2.950;2022-08-06T09:11:53;19.90;96.70
23495;DHT22;26107;50.832;2.950;2022-08-06T09:27:04;19.90;96.50
23495;DHT22;26107;50.832;2.950;2022-08-06T09:42:05;19.60;96.70
23495;DHT22;26107;50.832;2.950;2022-08-06T09:57:06;19.80;95.10
23495;DHT22;26107;50.832;2.950;2022-08-06T10:12:16;20.50;95.00
23495;DHT22;26107;50.832;2.950;2022-08-06T10:27:19;20.00;94.10
23495;DHT22;26107;50.832;2.950;2022-08-06T10:42:20;20.20;94.30
23495;DHT22;26107;50.832;2.950;2022-08-06T10:57:20;20.80;93.50
23495;DHT22;26107;50.832;2.950;2022-08-06T11:42:41;21.20;91.70
23495;DHT22;26107;50.832;2.950;2022-08-06T11:57:42;22.60;90.10
23495;DHT22;26107;50.832;2.950;2022-08-06T12:12:44;21.40;91.30
23495;DHT22;26107;50.832;2.950;2022-08-06T12:27:45;21.00;91.80
23495;DHT22;26107;50.832;2.950;2022-08-06T12:42:46;21.20;91.00
23495;DHT22;26107;50.832;2.950;2022-08-06T12:57:46;22.70;88.90
23495;DHT22;26107;50.832;2.950;2022-08-06T13:12:54;22.40;89.20
23495;DHT22;26107;50.832;2.950;2022-08-06T13:28:15;22.60;88.10
23495;DHT22;26107;50.832;2.950;2022-08-06T13:43:16;22.30;88.80
23495;DHT22;26107;50.832;2.950;2022-08-06T13:58:16;22.40;87.60
23495;DHT22;26107;50.832;2.950;2022-08-06T14:13:17;22.50;86.30
23495;DHT22;26107;50.832;2.950;2022-08-06T14:28:17;23.20;85.30
23495;DHT22;26107;50.832;2.950;2022-08-06T14:43:18;22.20;86.90
23495;DHT22;26107;50.832;2.950;2022-08-06T14:58:37;22.80;85.90
23495;DHT22;26107;50.832;2.950;2022-08-06T15:13:37;23.90;82.30
23495;DHT22;26107;50.832;2.950;2022-08-06T15:28:40;22.90;83.70
23495;DHT22;26107;50.832;2.950;2022-08-06T15:43:40;22.30;85.70
23495;DHT22;26107;50.832;2.950;2022-08-06T15:58:41;22.20;86.60
23495;DHT22;26107;50.832;2.950;2022-08-06T16:13:41;23.80;82.60
23495;DHT22;26107;50.832;2.950;2022-08-06T16:28:42;25.20;80.10
23495;DHT22;26107;50.832;2.950;2022-08-06T16:43:43;27.80;76.00
23495;DHT22;26107;50.832;2.950;2022-08-06T16:58:43;29.30;72.20
23495;DHT22;26107;50.832;2.950;2022-08-06T17:13:44;32.30;62.30
23495;DHT22;26107;50.832;2.950;2022-08-06T17:28:44;33.40;60.30
23495;DHT22;26107;50.832;2.950;2022-08-06T17:43:45;33.70;57.50
23495;DHT22;26107;50.832;2.950;2022-08-06T17:58:45;34.10;57.70
23495;DHT22;26107;50.832;2.950;2022-08-06T18:13:46;36.90;53.40
23495;DHT22;26107;50.832;2.950;2022-08-06T18:28:50;35.30;52.90
23495;DHT22;26107;50.832;2.950;2022-08-06T18:43:51;32.60;54.30
23495;DHT22;26107;50.832;2.950;2022-08-06T18:58:51;28.40;59.30
23495;DHT22;26107;50.832;2.950;2022-08-06T19:13:52;25.90;63.90
23495;DHT22;26107;50.832;2.950;2022-08-06T19:28:52;23.70;68.70
23495;DHT22;26107;50.832;2.950;2022-08-06T19:43:53;23.40;69.20
23495;DHT22;26107;50.832;2.950;2022-08-06T19:58:54;21.80;73.60
23495;DHT22;26107;50.832;2.950;2022-08-06T20:13:54;21.20;75.70
23495;DHT22;26107;50.832;2.950;2022-08-06T20:28:55;20.50;79.20
23495;DHT22;26107;50.832;2.950;2022-08-06T20:43:56;19.80;82.40
23495;DHT22;26107;50.832;2.950;2022-08-06T20:59:02;19.70;84.00
23495;DHT22;26107;50.832;2.950;2022-08-06T21:14:05;19.50;85.30
23495;DHT22;26107;50.832;2.950;2022-08-06T21:29:06;19.40;86.00
23495;DHT22;26107;50.832;2.950;2022-08-06T21:44:07;18.50;89.40
23495;DHT22;26107;50.832;2.950;2022-08-06T21:59:08;19.20;88.60
23495;DHT22;26107;50.832;2.950;2022-08-06T22:14:08;18.50;90.60
23495;DHT22;26107;50.832;2.950;2022-08-06T22:29:09;18.50;90.60
23495;DHT22;26107;50.832;2.950;2022-08-06T22:44:09;18.00;91.70
23495;DHT22;26107;50.832;2.950;2022-08-06T22:59:10;17.70;92.40
23495;DHT22;26107;50.832;2.950;2022-08-06T23:14:10;17.60;93.30
23495;DHT22;26107;50.832;2.950;2022-08-06T23:29:12;17.30;94.40
23495;DHT22;26107;50.832;2.950;2022-08-06T23:44:13;17.20;95.40
23495;DHT22;26107;50.832;2.950;2022-08-06T23:59:13;17.20;95.80
